Time;durP1;ratioP1;P1;durP2;ratioP2;P2;SDS_P1;SDS_P2;PMS_P1;PMS_P2;Temp;Humidity;BMP_temperature;BMP_pressure;BME280_temperature;BME280_humidity;BME280_pressure;Samples;Min_cycle;Max_cycle;Signal;HPM_P1;HPM_P2
2021/06/24 00:01:08;;;;;;;;;;;;;;;;;;5052872;28;20394;-78
2021/06/24 00:03:34;;;;;;;;;;;;;;;;;;5056679;28;19959;-78
2021/06/24 00:05:59;;;;;;;;;;;;;;;;;;5054778;28;19927;-78
2021/06/24 00:08:25;;;;;;;;;;;;;;;;;;5074456;28;20320;-78
2021/06/24 00:10:50;;;;;;;;;;;;;;;;;;5046690;28;19923;-78
2021/06/24 00:13:16;;;;;;;;;;;;;;;;;;5050282;28;19916;-78
2021/06/24 00:15:41;;;;;;;;;;;;;;;;;;5072986;28;19923;-78
2021/06/24 00:18:06;;;;;;;;;;;;;;;;;;5074064;28;19919;-78
2021/06/24 00:20:31;;;;;;;;;;;;;;;;;;5045237;28;20011;-78
2021/06/24 00:22:57;;;;;;;;;;;;;;;;;;5047307;28;19917;-77
2021/06/24 00:25:22;;;;;;;;;;;;;;;;;;5059112;28;19924;-78
2021/06/24 00:27:47;;;;;;;;;;;;;;;;;;5054160;28;19997;-78
2021/06/24 00:30:13;;;;;;;;;;;;;;;;;;5043064;28;19921;-78
2021/06/24 00:32:38;;;;;;;;;;;;;;;;;;5055849;28;19919;-78
2021/06/24 00:35:04;;;;;;;;;;;;;;;;;;5055386;28;19923;-78
2021/06/24 00:37:29;;;;;;;;;;;;;;;;;;5047601;28;20295;-78
2021/06/24 00:39:55;;;;;;;;;;;;;;;;;;5024382;28;19916;-78
2021/06/24 00:42:20;;;;;;;;;;;;;;;;;;5055795;28;19912;-78
2021/06/24 00:44:45;;;;;;;;;;;;;;;;;;5051205;28;19995;-78
2021/06/24 00:47:10;;;;;;;;;;;;;;;;;;5074049;28;19921;-78
2021/06/24 00:49:35;;;;;;;;;;;;;;;;;;5065534;28;20391;-77
2021/06/24 00:52:01;;;;;;;;;;;;;;;;;;5037341;28;19917;-78
2021/06/24 00:54:26;;;;;;;;;;;;;;;;;;5035879;28;19917;-78
2021/06/24 00:56:51;;;;;;;;;;;;;;;;;;5047782;28;19993;-78
2021/06/24 00:59:16;;;;;;;;;;;;;;;;;;5056241;28;19966;-78
2021/06/24 01:01:42;;;;;;;;;;;;;;;;;;5052261;28;20011;-78
2021/06/24 01:04:07;;;;;;;;;;;;;;;;;;5074120;28;19925;-78
2021/06/24 01:06:33;;;;;;;;;;;;;;;;;;5059853;28;20379;-78
2021/06/24 01:08:58;;;;;;;;;;;;;;;;;;5054555;28;19952;-78
2021/06/24 01:11:23;;;;;;;;;;;;;;;;;;5060122;28;20318;-78
2021/06/24 01:13:48;;;;;;;;;;;;;;;;;;5057012;28;19939;-78
2021/06/24 01:16:14;;;;;;;;;;;;;;;;;;5071450;28;19916;-78
2021/06/24 01:18:39;;;;;;;;;;;;;;;;;;5061699;28;19912;-78
2021/06/24 01:21:04;;;;;;;;;;;;;;;;;;5061251;28;20302;-78
2021/06/24 01:23:35;;;;;;;;;;;;;;;;;;5043579;28;19923;-78
2021/06/24 01:26:00;;;;;;;;;;;;;;;;;;5041574;28;20294;-78
2021/06/24 01:28:25;;;;;;;;;;;;;;;;;;5060544;28;19921;-78
2021/06/24 01:30:50;;;;;;;;;;;;;;;;;;5059674;28;19917;-78
2021/06/24 01:33:16;;;;;;;;;;;;;;;;;;5025314;28;19913;-78
2021/06/24 01:35:41;;;;;;;;;;;;;;;;;;5046305;28;20015;-78
2021/06/24 01:38:07;;;;;;;;;;;;;;;;;;5059493;28;19917;-78
2021/06/24 01:40:32;;;;;;;;;;;;;;;;;;5059425;28;19966;-78
2021/06/24 01:42:57;;;;;;;;;;;;;;;;;;5073495;28;19936;-78
2021/06/24 01:45:22;;;;;;;;;;;;;;;;;;5066147;28;20383;-78
2021/06/24 01:47:48;;;;;;;;;;;;;;;;;;5055232;28;19916;-78
2021/06/24 01:50:13;;;;;;;;;;;;;;;;;;5071311;28;19962;-78
2021/06/24 01:52:39;;;;;;;;;;;;;;;;;;5054814;28;20007;-78
2021/06/24 01:55:04;;;;;;;;;;;;;;;;;;5076506;28;20044;-78
2021/06/24 01:57:30;;;;;;;;;;;;;;;;;;5058616;28;19912;-77
2021/06/24 01:59:57;;;;;;;;;;;;;;;;;;5058134;28;20353;-78
2021/06/24 02:02:23;;;;;;;;;;;;;;;;;;5054287;28;19920;-77
2021/06/24 02:04:49;;;;;;;;;;;;;;;;;;5056521;28;19963;-78
2021/06/24 02:07:14;;;;;;;;;;;;;;;;;;5039381;28;20348;-78
2021/06/24 02:09:39;;;;;;;;;;;;;;;;;;5039301;28;20379;-78
2021/06/24 02:12:04;;;;;;;;;;;;;;;;;;5043729;28;19917;-78
2021/06/24 02:14:30;;;;;;;;;;;;;;;;;;5076970;28;19916;-78
2021/06/24 02:16:55;;;;;;;;;;;;;;;;;;5058524;28;19935;-78
2021/06/24 02:19:20;;;;;;;;;;;;;;;;;;5055836;28;19923;-78
2021/06/24 02:21:45;;;;;;;;;;;;;;;;;;5058895;28;20375;-78
2021/06/24 02:24:10;;;;;;;;;;;;;;;;;;5049262;28;20393;-78
2021/06/24 02:26:36;;;;;;;;;;;;;;;;;;5058044;28;19920;-77
2021/06/24 02:29:01;;;;;;;;;;;;;;;;;;5057823;28;19912;-77
2021/06/24 02:31:27;;;;;;;;;;;;;;;;;;5075955;28;19912;-78
2021/06/24 02:33:52;;;;;;;;;;;;;;;;;;5072664;28;20009;-76
2021/06/24 02:36:18;;;;;;;;;;;;;;;;;;5039994;28;20027;-79
2021/06/24 02:38:43;;;;;;;;;;;;;;;;;;5036143;28;19921;-79
2021/06/24 02:41:08;;;;;;;;;;;;;;;;;;5040293;28;20310;-79
2021/06/24 02:43:33;;;;;;;;;;;;;;;;;;5056942;28;19962;-79
2021/06/24 02:45:58;;;;;;;;;;;;;;;;;;5037806;28;19921;-77
2021/06/24 02:48:24;;;;;;;;;;;;;;;;;;5066499;28;19920;-78
2021/06/24 02:50:49;;;;;;;;;;;;;;;;;;5053954;28;19913;-77
2021/06/24 02:53:14;;;;;;;;;;;;;;;;;;5037980;28;19932;-77
2021/06/24 02:55:41;;;;;;;;;;;;;;;;;;5053463;28;20441;-78
2021/06/24 02:58:06;;;;;;;;;;;;;;;;;;5071252;28;19982;-78
2021/06/24 03:00:31;;;;;;;;;;;;;;;;;;5053595;28;20383;-78
2021/06/24 03:02:56;;;;;;;;;;;;;;;;;;5036124;28;19912;-78
2021/06/24 03:05:22;;;;;;;;;;;;;;;;;;5049771;28;19924;-78
2021/06/24 03:07:47;;;;;;;;;;;;;;;;;;5062990;28;20364;-78
2021/06/24 03:10:12;;;;;;;;;;;;;;;;;;5034301;28;20417;-77
2021/06/24 03:12:37;;;;;;;;;;;;;;;;;;5033606;28;19913;-77
2021/06/24 03:15:03;;;;;;;;;;;;;;;;;;5063638;28;19925;-77
2021/06/24 03:17:29;;;;;;;;;;;;;;;;;;5047094;28;19921;-77
2021/06/24 03:19:54;;;;;;;;;;;;;;;;;;5049994;28;19970;-77
2021/06/24 03:22:19;;;;;;;;;;;;;;;;;;5048954;28;20312;-77
2021/06/24 03:24:44;;;;;;;;;;;;;;;;;;5043266;28;19920;-77
2021/06/24 03:27:09;;;;;;;;;;;;;;;;;;5049507;28;19931;-78
2021/06/24 03:29:35;;;;;;;;;;;;;;;;;;5032942;28;19917;-77
2021/06/24 03:32:00;;;;;;;;;;;;;;;;;;5033641;28;19981;-77
2021/06/24 03:34:25;;;;;;;;;;;;;;;;;;5057956;28;19920;-77
2021/06/24 03:36:50;;;;;;;;;;;;;;;;;;5053345;28;19920;-77
2021/06/24 03:39:16;;;;;;;;;;;;;;;;;;5052149;28;19968;-79
2021/06/24 03:41:41;;;;;;;;;;;;;;;;;;5043763;28;19923;-77
2021/06/24 03:44:06;;;;;;;;;;;;;;;;;;5048349;28;19920;-76
2021/06/24 03:46:32;;;;;;;;;;;;;;;;;;5050448;28;20363;-76
2021/06/24 03:48:58;;;;;;;;;;;;;;;;;;5049122;28;20011;-77
2021/06/24 03:51:23;;;;;;;;;;;;;;;;;;5065941;28;19916;-77
2021/06/24 03:53:48;;;;;;;;;;;;;;;;;;5017328;28;20588;-77
2021/06/24 03:56:13;;;;;;;;;;;;;;;;;;5070330;28;20379;-77
2021/06/24 03:58:38;;;;;;;;;;;;;;;;;;5039246;28;19917;-77
2021/06/24 04:01:04;;;;;;;;;;;;;;;;;;5033007;28;20013;-77
2021/06/24 04:03:29;;;;;;;;;;;;;;;;;;5035555;28;19919;-77
2021/06/24 04:05:54;;;;;;;;;;;;;;;;;;5051678;28;19924;-77
2021/06/24 04:08:19;;;;;;;;;;;;;;;;;;5042407;28;19920;-77
2021/06/24 04:10:44;;;;;;;;;;;;;;;;;;5070062;28;19931;-77
2021/06/24 04:13:10;;;;;;;;;;;;;;;;;;5052110;28;19925;-77
2021/06/24 04:15:35;;;;;;;;;;;;;;;;;;5065612;28;19921;-77
2021/06/24 04:18:02;;;;;;;;;;;;;;;;;;5044817;28;20003;-77
2021/06/24 04:20:28;;;;;;;;;;;;;;;;;;5032258;28;20035;-77
2021/06/24 04:22:53;;;;;;;;;;;;;;;;;;5069390;28;20003;-77
2021/06/24 04:25:18;;;;;;;;;;;;;;;;;;5039920;28;19931;-78
2021/06/24 04:27:44;;;;;;;;;;;;;;;;;;5035970;28;20326;-75
2021/06/24 04:30:09;;;;;;;;;;;;;;;;;;5051991;28;19916;-77
2021/06/24 04:32:34;;;;;;;;;;;;;;;;;;5064410;28;19921;-77
2021/06/24 04:34:59;;;;;;;;;;;;;;;;;;5059764;28;20019;-77
2021/06/24 04:37:25;;;;;;;;;;;;;;;;;;5055138;28;19921;-77
2021/06/24 04:39:50;;;;;;;;;;;;;;;;;;5068236;28;19967;-77
2021/06/24 04:42:15;;;;;;;;;;;;;;;;;;5045673;28;19966;-77
2021/06/24 04:44:40;;;;;;;;;;;;;;;;;;5036837;28;19932;-77
2021/06/24 04:47:06;;;;;;;;;;;;;;;;;;5057678;28;20016;-77
2021/06/24 04:49:31;;;;;;;;;;;;;;;;;;5051881;28;19930;-77
2021/06/24 04:51:56;;;;;;;;;;;;;;;;;;5048009;28;19920;-77
2021/06/24 04:54:21;;;;;;;;;;;;;;;;;;5047475;28;19927;-77
2021/06/24 04:56:46;;;;;;;;;;;;;;;;;;5049689;28;19916;-77
2021/06/24 04:59:12;;;;;;;;;;;;;;;;;;5054892;28;19921;-77
2021/06/24 05:01:37;;;;;;;;;;;;;;;;;;5051903;28;19978;-77
2021/06/24 05:04:03;;;;;;;;;;;;;;;;;;5049486;28;19931;-77
2021/06/24 05:06:28;;;;;;;;;;;;;;;;;;5070293;28;19921;-77
2021/06/24 05:08:53;;;;;;;;;;;;;;;;;;5048112;28;19935;-77
2021/06/24 05:11:18;;;;;;;;;;;;;;;;;;5052484;28;19916;-77
2021/06/24 05:13:44;;;;;;;;;;;;;;;;;;5045460;28;19942;-77
2021/06/24 05:16:09;;;;;;;;;;;;;;;;;;5067199;28;19970;-77
2021/06/24 05:18:34;;;;;;;;;;;;;;;;;;5055101;28;20311;-80
2021/06/24 05:21:00;;;;;;;;;;;;;;;;;;5032691;28;19943;-78
2021/06/24 05:23:25;;;;;;;;;;;;;;;;;;5035450;28;19920;-77
2021/06/24 05:25:50;;;;;;;;;;;;;;;;;;5041602;28;19924;-78
2021/06/24 05:28:15;;;;;;;;;;;;;;;;;;5045698;28;20019;-77
2021/06/24 05:30:41;;;;;;;;;;;;;;;;;;5049742;28;20369;-78
2021/06/24 05:33:06;;;;;;;;;;;;;;;;;;5053414;28;20335;-77
2021/06/24 05:35:31;;;;;;;;;;;;;;;;;;5051972;28;19920;-77
2021/06/24 05:37:57;;;;;;;;;;;;;;;;;;5067477;28;19924;-77
2021/06/24 05:40:22;;;;;;;;;;;;;;;;;;5069559;28;19927;-77
2021/06/24 05:42:51;;;;;;;;;;;;;;;;;;5069387;28;19944;-77
2021/06/24 05:45:16;;;;;;;;;;;;;;;;;;5031958;28;19913;-77
2021/06/24 05:47:41;;;;;;;;;;;;;;;;;;5033089;28;19921;-77
2021/06/24 05:50:06;;;;;;;;;;;;;;;;;;5060164;28;20641;-77
2021/06/24 05:52:32;;;;;;;;;;;;;;;;;;5054471;28;20451;-78
2021/06/24 05:54:57;;;;;;;;;;;;;;;;;;5073766;28;19916;-78
2021/06/24 05:57:22;;;;;;;;;;;;;;;;;;5054298;28;20424;-78
2021/06/24 05:59:48;;;;;;;;;;;;;;;;;;5036447;28;19916;-77
2021/06/24 06:02:13;;;;;;;;;;;;;;;;;;5038897;28;19920;-77
2021/06/24 06:04:38;;;;;;;;;;;;;;;;;;5053592;28;19923;-77
2021/06/24 06:07:04;;;;;;;;;;;;;;;;;;5063055;28;19921;-77
2021/06/24 06:09:29;;;;;;;;;;;;;;;;;;5072563;28;19916;-77
2021/06/24 06:11:54;;;;;;;;;;;;;;;;;;5058059;28;19917;-77
2021/06/24 06:14:19;;;;;;;;;;;;;;;;;;5062291;28;19913;-77
2021/06/24 06:16:45;;;;;;;;;;;;;;;;;;5038784;28;19913;-78
2021/06/24 06:19:10;;;;;;;;;;;;;;;;;;5076419;28;19912;-77
2021/06/24 06:21:36;;;;;;;;;;;;;;;;;;5075844;28;19963;-78
2021/06/24 06:24:01;;;;;;;;;;;;;;;;;;5076360;28;19916;-77
2021/06/24 06:26:27;;;;;;;;;;;;;;;;;;5074557;28;20367;-77
2021/06/24 06:28:52;;;;;;;;;;;;;;;;;;5041478;28;19913;-77
2021/06/24 06:31:18;;;;;;;;;;;;;;;;;;5038033;28;19976;-77
2021/06/24 06:33:43;;;;;;;;;;;;;;;;;;5055794;28;19916;-78
2021/06/24 06:36:08;;;;;;;;;;;;;;;;;;5038684;28;19912;-78
2021/06/24 06:38:34;;;;;;;;;;;;;;;;;;5056830;28;19939;-78
2021/06/24 06:40:59;;;;;;;;;;;;;;;;;;5039426;28;19916;-78
2021/06/24 06:43:24;;;;;;;;;;;;;;;;;;5038726;28;20000;-78
2021/06/24 06:45:49;;;;;;;;;;;;;;;;;;5056704;28;20295;-78
2021/06/24 06:48:15;;;;;;;;;;;;;;;;;;5054851;28;19916;-78
2021/06/24 06:50:40;;;;;;;;;;;;;;;;;;5060080;28;19920;-78
2021/06/24 06:53:06;;;;;;;;;;;;;;;;;;5043493;28;19920;-78
2021/06/24 06:55:31;;;;;;;;;;;;;;;;;;5060870;28;20287;-78
2021/06/24 06:57:57;;;;;;;;;;;;;;;;;;5043211;28;19913;-78
2021/06/24 07:00:25;;;;;;;;;;;;;;;;;;5061119;28;19913;-78
2021/06/24 07:02:51;;;;;;;;;;;;;;;;;;5064667;28;19912;-78
2021/06/24 07:05:16;;;;;;;;;;;;;;;;;;5043797;28;19979;-78
2021/06/24 07:07:41;;;;;;;;;;;;;;;;;;5042654;28;19936;-78
2021/06/24 07:10:06;;;;;;;;;;;;;;;;;;5042390;28;19978;-78
2021/06/24 07:12:32;;;;;;;;;;;;;;;;;;5059748;28;19966;-78
2021/06/24 07:14:57;;;;;;;;;;;;;;;;;;5059116;28;19920;-78
2021/06/24 07:17:22;;;;;;;;;;;;;;;;;;5040883;28;19924;-78
2021/06/24 07:19:47;;;;;;;;;;;;;;;;;;5042722;28;19920;-78
2021/06/24 07:22:12;;;;;;;;;;;;;;;;;;5058933;28;19924;-78
2021/06/24 07:24:38;;;;;;;;;;;;;;;;;;5041600;28;20384;-78
2021/06/24 07:27:04;;;;;;;;;;;;;;;;;;5058999;28;19956;-78
2021/06/24 07:29:29;;;;;;;;;;;;;;;;;;5041094;28;19913;-78
2021/06/24 07:31:54;;;;;;;;;;;;;;;;;;5058151;28;20007;-78
2021/06/24 07:34:19;;;;;;;;;;;;;;;;;;5058806;28;19913;-78
2021/06/24 07:36:45;;;;;;;;;;;;;;;;;;5057367;28;19967;-77
2021/06/24 07:39:11;;;;;;;;;;;;;;;;;;5054316;28;19916;-77
2021/06/24 07:41:36;;;;;;;;;;;;;;;;;;5037169;28;19963;-77
2021/06/24 07:44:01;;;;;;;;;;;;;;;;;;5057617;28;19995;-78
2021/06/24 07:46:27;;;;;;;;;;;;;;;;;;5032942;28;19984;-78
2021/06/24 07:48:52;;;;;;;;;;;;;;;;;;5039719;28;19985;-78
2021/06/24 07:51:17;;;;;;;;;;;;;;;;;;5077552;28;19916;-78
2021/06/24 07:53:42;;;;;;;;;;;;;;;;;;5047339;28;19924;-78
2021/06/24 07:56:11;;;;;;;;;;;;;;;;;;5044586;28;20015;-78
2021/06/24 07:58:36;;;;;;;;;;;;;;;;;;5060295;28;19913;-78
2021/06/24 08:01:02;;;;;;;;;;;;;;;;;;5078765;28;19978;-78
2021/06/24 08:03:27;;;;;;;;;;;;;;;;;;5060720;28;20398;-78
2021/06/24 08:05:53;;;;;;;;;;;;;;;;;;5058173;28;19921;-78
2021/06/24 08:08:18;;;;;;;;;;;;;;;;;;5059516;28;20280;-78
2021/06/24 08:10:43;;;;;;;;;;;;;;;;;;5040342;28;19928;-79
2021/06/24 08:13:08;;;;;;;;;;;;;;;;;;5063916;28;20039;-78
2021/06/24 08:15:33;;;;;;;;;;;;;;;;;;5039890;28;20434;-78
2021/06/24 08:17:59;;;;;;;;;;;;;;;;;;5041076;28;19963;-78
2021/06/24 08:20:24;;;;;;;;;;;;;;;;;;5040254;28;20386;-78
2021/06/24 08:22:49;;;;;;;;;;;;;;;;;;5078115;28;20384;-78
2021/06/24 08:25:14;;;;;;;;;;;;;;;;;;5060019;28;19942;-79
2021/06/24 08:27:40;;;;;;;;;;;;;;;;;;5043010;28;19923;-79
2021/06/24 08:30:06;;;;;;;;;;;;;;;;;;5070963;28;19916;-79
2021/06/24 08:32:31;;;;;;;;;;;;;;;;;;5051058;28;19916;-79
2021/06/24 08:34:56;;;;;;;;;;;;;;;;;;5078252;28;19913;-78
2021/06/24 08:37:21;;;;;;;;;;;;;;;;;;5076237;28;19935;-79
2021/06/24 08:39:48;;;;;;;;;;;;;;;;;;5049423;28;19924;-79
2021/06/24 08:42:14;;;;;;;;;;;;;;;;;;5055815;28;19931;-79
2021/06/24 08:44:39;;;;;;;;;;;;;;;;;;5022234;28;19913;-77
2021/06/24 08:47:04;;;;;;;;;;;;;;;;;;5055629;28;19917;-77
2021/06/24 08:49:32;;;;;;;;;;;;;;;;;;5056309;28;19917;-77
2021/06/24 08:52:00;;;;;;;;;;;;;;;;;;5056499;28;19917;-78
2021/06/24 08:54:25;;;;;;;;;;;;;;;;;;5056384;28;20383;-77
2021/06/24 08:56:51;;;;;;;;;;;;;;;;;;5062444;28;19966;-77
2021/06/24 08:59:16;;;;;;;;;;;;;;;;;;5072648;28;19917;-77
2021/06/24 09:01:52;;;;;;;;;;;;;;;;;;5073459;28;19961;-78
2021/06/24 09:04:18;;;;;;;;;;;;;;;;;;5062409;28;20379;-78
2021/06/24 09:06:43;;;;;;;;;;;;;;;;;;5060591;28;19924;-78
2021/06/24 09:09:09;;;;;;;;;;;;;;;;;;5044148;28;19966;-79
2021/06/24 09:11:34;;;;;;;;;;;;;;;;;;5076780;28;19917;-79
2021/06/24 09:14:01;;;;;;;;;;;;;;;;;;5059585;28;19920;-79
2021/06/24 09:16:27;;;;;;;;;;;;;;;;;;5061034;28;19923;-79
2021/06/24 09:18:53;;;;;;;;;;;;;;;;;;5053107;28;20398;-78
2021/06/24 09:21:20;;;;;;;;;;;;;;;;;;5060926;28;19939;-78
2021/06/24 09:23:45;;;;;;;;;;;;;;;;;;5036567;28;19924;-78
2021/06/24 09:26:14;;;;;;;;;;;;;;;;;;5064897;28;19921;-79
2021/06/24 09:28:43;;;;;;;;;;;;;;;;;;5066528;28;19916;-79
2021/06/24 09:31:22;;;;;;;;;;;;;;;;;;5065250;28;19919;-79
2021/06/24 09:33:47;;;;;;;;;;;;;;;;;;5056863;28;19913;-79
2021/06/24 09:36:12;;;;;;;;;;;;;;;;;;5060856;28;19923;-79
2021/06/24 09:38:40;;;;;;;;;;;;;;;;;;5063207;28;19931;-79
2021/06/24 09:41:05;;;;;;;;;;;;;;;;;;5063096;28;19980;-79
2021/06/24 09:43:32;;;;;;;;;;;;;;;;;;5031894;28;19952;-79
2021/06/24 09:46:02;;;;;;;;;;;;;;;;;;5030863;28;19983;-79
2021/06/24 09:48:31;;;;;;;;;;;;;;;;;;5047573;28;20399;-79
2021/06/24 09:51:03;;;;;;;;;;;;;;;;;;5049009;28;19916;-79
2021/06/24 09:53:29;;;;;;;;;;;;;;;;;;5064882;28;19913;-79
2021/06/24 09:55:54;;;;;;;;;;;;;;;;;;5069491;28;19912;-79
2021/06/24 09:58:19;;;;;;;;;;;;;;;;;;5069636;28;19923;-80
2021/06/24 10:00:48;;;;;;;;;;;;;;;;;;5050612;28;19924;-80
2021/06/24 10:03:13;;;;;;;;;;;;;;;;;;5051216;28;19920;-79
2021/06/24 10:05:40;;;;;;;;;;;;;;;;;;5066158;28;19921;-80
2021/06/24 10:08:05;;;;;;;;;;;;;;;;;;5047350;28;19984;-79
2021/06/24 10:10:30;;;;;;;;;;;;;;;;;;5029858;28;19979;-79
2021/06/24 10:12:56;;;;;;;;;;;;;;;;;;5050656;28;20354;-79
2021/06/24 10:15:22;;;;;;;;;;;;;;;;;;5056768;28;19912;-79
2021/06/24 10:17:48;;;;;;;;;;;;;;;;;;5079619;28;20384;-79
2021/06/24 10:20:13;;;;;;;;;;;;;;;;;;5061565;28;19927;-79
2021/06/24 10:22:38;;;;;;;;;;;;;;;;;;5061150;28;19913;-79
2021/06/24 10:25:04;;;;;;;;;;;;;;;;;;5051192;28;19922;-79
2021/06/24 10:27:36;;;;;;;;;;;;;;;;;;5050002;28;20445;-79
2021/06/24 10:30:08;;;;;;;;;;;;;;;;;;5077916;28;19991;-80
2021/06/24 10:32:34;;;;;;;;;;;;;;;;;;5057809;28;19916;-80
2021/06/24 10:35:00;;;;;;;;;;;;;;;;;;5062186;28;19916;-80
2021/06/24 10:37:26;;;;;;;;;;;;;;;;;;5061236;28;20414;-81
2021/06/24 10:39:52;;;;;;;;;;;;;;;;;;5062423;28;19913;-80
2021/06/24 10:42:17;;;;;;;;;;;;;;;;;;5049295;28;19913;-80
2021/06/24 10:44:43;;;;;;;;;;;;;;;;;;5062277;28;19917;-80
2021/06/24 10:47:08;;;;;;;;;;;;;;;;;;5059457;28;20368;-77
2021/06/24 10:49:33;;;;;;;;;;;;;;;;;;5060793;28;19921;-76
2021/06/24 10:52:27;;;;;;;;;;;;;;;;;;5071476;28;19955;-82
2021/06/24 10:54:55;;;;;;;;;;;;;;;;;;5083165;28;20014;-82
2021/06/24 10:57:31;;;;;;;;;;;;;;;;;;5055198;28;19917;-82
2021/06/24 10:59:58;;;;;;;;;;;;;;;;;;5034958;28;19924;-81
2021/06/24 11:02:23;;;;;;;;;;;;;;;;;;5043487;28;19913;-82
2021/06/24 11:04:48;;;;;;;;;;;;;;;;;;5059633;28;19931;-83
2021/06/24 11:07:16;;;;;;;;;;;;;;;;;;5055072;28;19928;-83
2021/06/24 11:10:01;;;;;;;;;;;;;;;;;;5061048;28;19920;-82
2021/06/24 11:12:46;;;;;;;;;;;;;;;;;;5044451;28;19912;-83
2021/06/24 11:15:11;;;;;;;;;;;;;;;;;;5076158;28;19917;-83
2021/06/24 11:17:46;;;;;;;;;;;;;;;;;;5064317;28;19919;-83
2021/06/24 11:20:12;;;;;;;;;;;;;;;;;;5059775;28;20387;-82
2021/06/24 11:22:44;;;;;;;;;;;;;;;;;;5043860;28;19913;-81
2021/06/24 11:25:10;;;;;;;;;;;;;;;;;;5065030;28;19923;-80
2021/06/24 11:27:35;;;;;;;;;;;;;;;;;;5063401;28;19956;-84
2021/06/24 11:30:00;;;;;;;;;;;;;;;;;;5039983;28;19928;-80
2021/06/24 11:32:31;;;;;;;;;;;;;;;;;;5048221;28;19944;-80
2021/06/24 11:35:14;;;;;;;;;;;;;;;;;;5042664;28;19916;-80
2021/06/24 11:37:40;;;;;;;;;;;;;;;;;;5058184;28;19952;-80
2021/06/24 11:40:06;;;;;;;;;;;;;;;;;;5037964;28;19921;-80
2021/06/24 11:42:41;;;;;;;;;;;;;;;;;;5021357;28;19952;-79
2021/06/24 11:45:06;;;;;;;;;;;;;;;;;;5042000;28;19923;-80
2021/06/24 11:47:32;;;;;;;;;;;;;;;;;;5051734;28;19925;-80
2021/06/24 12:03:48;;;;;;;;;;;;;;;;;;5064192;28;20281;-80
2021/06/24 12:06:13;;;;;;;;;;;;;;;;;;5070512;28;20391;-77
2021/06/24 12:08:38;;;;;;;;;;;;;;;;;;5064233;28;19932;-77
2021/06/24 12:11:07;;;;;;;;;;;;;;;;;;5052986;28;19927;-77
2021/06/24 12:13:33;;;;;;;;;;;;;;;;;;5052216;28;19947;-78
2021/06/24 12:16:00;;;;;;;;;;;;;;;;;;5042261;28;20019;-77
2021/06/24 12:18:35;;;;;;;;;;;;;;;;;;5046047;28;19913;-77
2021/06/24 12:21:03;;;;;;;;;;;;;;;;;;5042510;28;20018;-77
2021/06/24 12:23:29;;;;;;;;;;;;;;;;;;5052865;28;19916;-78
2021/06/24 12:25:54;;;;;;;;;;;;;;;;;;5036869;28;19921;-78
2021/06/24 12:28:19;;;;;;;;;;;;;;;;;;5050877;28;19917;-77
2021/06/24 12:30:44;;;;;;;;;;;;;;;;;;5048198;28;20541;-77
2021/06/24 12:33:10;;;;;;;;;;;;;;;;;;5052715;28;19913;-78
2021/06/24 12:35:40;;;;;;;;;;;;;;;;;;5050140;28;20375;-78
2021/06/24 12:38:05;;;;;;;;;;;;;;;;;;5037836;28;19975;-78
2021/06/24 12:40:32;;;;;;;;;;;;;;;;;;5056086;28;20375;-78
2021/06/24 12:42:57;;;;;;;;;;;;;;;;;;5047964;28;19917;-78
2021/06/24 12:45:27;;;;;;;;;;;;;;;;;;5074447;28;19920;-79
2021/06/24 12:47:52;;;;;;;;;;;;;;;;;;5076379;28;19924;-79
2021/06/24 12:50:25;;;;;;;;;;;;;;;;;;5041867;28;19917;-79
2021/06/24 12:52:51;;;;;;;;;;;;;;;;;;5057853;28;19919;-79
2021/06/24 12:55:38;;;;;;;;;;;;;;;;;;5047921;28;20427;-79
2021/06/24 12:58:22;;;;;;;;;;;;;;;;;;5062270;28;19916;-79
2021/06/24 13:01:09;;;;;;;;;;;;;;;;;;5057995;28;19917;-79
2021/06/24 13:03:39;;;;;;;;;;;;;;;;;;5043662;28;19920;-78
2021/06/24 13:06:08;;;;;;;;;;;;;;;;;;5058827;28;19924;-78
2021/06/24 13:08:33;;;;;;;;;;;;;;;;;;5060929;28;19924;-79
2021/06/24 13:10:58;;;;;;;;;;;;;;;;;;5060823;28;19913;-79
2021/06/24 13:13:27;;;;;;;;;;;;;;;;;;5026015;28;19916;-78
2021/06/24 13:15:52;;;;;;;;;;;;;;;;;;5077623;28;19924;-79
2021/06/24 13:18:17;;;;;;;;;;;;;;;;;;5068273;28;19917;-79
2021/06/24 13:20:52;;;;;;;;;;;;;;;;;;5048824;28;19984;-79
2021/06/24 13:23:22;;;;;;;;;;;;;;;;;;5051910;28;20374;-79
2021/06/24 13:25:49;;;;;;;;;;;;;;;;;;5080858;28;19916;-79
2021/06/24 13:28:15;;;;;;;;;;;;;;;;;;5080582;28;19923;-79
2021/06/24 13:30:41;;;;;;;;;;;;;;;;;;5063372;28;19912;-79
2021/06/24 13:33:06;;;;;;;;;;;;;;;;;;5072748;28;19923;-79
2021/06/24 13:35:31;;;;;;;;;;;;;;;;;;5057193;28;19917;-79
2021/06/24 13:37:57;;;;;;;;;;;;;;;;;;5052760;28;19967;-79
2021/06/24 13:40:24;;;;;;;;;;;;;;;;;;5060721;28;20360;-79
2021/06/24 13:42:50;;;;;;;;;;;;;;;;;;5063608;28;19935;-79
2021/06/24 13:45:15;;;;;;;;;;;;;;;;;;5052615;28;20326;-78
2021/06/24 13:47:40;;;;;;;;;;;;;;;;;;5026706;28;19971;-79
2021/06/24 13:50:06;;;;;;;;;;;;;;;;;;5075187;28;19917;-79
2021/06/24 13:52:31;;;;;;;;;;;;;;;;;;5063325;28;19912;-79
2021/06/24 13:54:57;;;;;;;;;;;;;;;;;;5062321;28;19935;-79
2021/06/24 13:57:22;;;;;;;;;;;;;;;;;;5034152;28;19917;-79
2021/06/24 13:59:47;;;;;;;;;;;;;;;;;;5076011;28;19917;-79
2021/06/24 14:02:13;;;;;;;;;;;;;;;;;;5061809;28;20280;-77
2021/06/24 14:04:38;;;;;;;;;;;;;;;;;;5078730;28;20375;-78
2021/06/24 14:07:03;;;;;;;;;;;;;;;;;;5059633;28;19928;-79
2021/06/24 14:09:28;;;;;;;;;;;;;;;;;;5069264;28;19916;-79
2021/06/24 14:11:53;;;;;;;;;;;;;;;;;;5078840;28;20299;-79
2021/06/24 14:14:19;;;;;;;;;;;;;;;;;;5034510;28;19921;-79
2021/06/24 14:16:44;;;;;;;;;;;;;;;;;;5079436;28;19912;-79
2021/06/24 14:19:10;;;;;;;;;;;;;;;;;;5080182;28;19913;-79
2021/06/24 14:21:35;;;;;;;;;;;;;;;;;;5061768;28;19978;-79
2021/06/24 14:24:00;;;;;;;;;;;;;;;;;;5060992;28;19962;-79
2021/06/24 14:26:27;;;;;;;;;;;;;;;;;;5060613;28;20024;-79
2021/06/24 14:28:52;;;;;;;;;;;;;;;;;;5061597;28;19958;-79
2021/06/24 14:31:17;;;;;;;;;;;;;;;;;;5060863;28;19916;-79
2021/06/24 14:33:44;;;;;;;;;;;;;;;;;;5060916;28;19965;-79
2021/06/24 14:36:09;;;;;;;;;;;;;;;;;;5061014;28;19913;-79
2021/06/24 14:38:35;;;;;;;;;;;;;;;;;;5060635;28;19916;-79
2021/06/24 14:41:00;;;;;;;;;;;;;;;;;;5060832;28;19927;-79
2021/06/24 14:43:26;;;;;;;;;;;;;;;;;;5060790;28;20007;-79
2021/06/24 14:45:52;;;;;;;;;;;;;;;;;;5061149;28;19966;-79
2021/06/24 14:48:17;;;;;;;;;;;;;;;;;;5059915;28;19919;-79
2021/06/24 14:50:43;;;;;;;;;;;;;;;;;;5060507;28;19958;-79
2021/06/24 14:53:08;;;;;;;;;;;;;;;;;;5078537;28;19912;-79
2021/06/24 14:55:36;;;;;;;;;;;;;;;;;;5060139;28;20387;-79
2021/06/24 14:58:02;;;;;;;;;;;;;;;;;;5060720;28;19938;-79
2021/06/24 15:00:27;;;;;;;;;;;;;;;;;;5059845;28;19913;-79
2021/06/24 15:02:53;;;;;;;;;;;;;;;;;;5060027;28;19912;-79
2021/06/24 15:05:18;;;;;;;;;;;;;;;;;;5076349;28;19916;-79
2021/06/24 15:07:43;;;;;;;;;;;;;;;;;;5077445;28;20371;-79
2021/06/24 15:10:09;;;;;;;;;;;;;;;;;;5077140;28;19920;-79
2021/06/24 15:12:34;;;;;;;;;;;;;;;;;;5060358;28;19920;-79
2021/06/24 15:14:59;;;;;;;;;;;;;;;;;;5060960;28;20330;-79
2021/06/24 15:17:24;;;;;;;;;;;;;;;;;;5061244;28;19912;-79
2021/06/24 15:19:50;;;;;;;;;;;;;;;;;;5079307;28;20329;-79
2021/06/24 15:22:15;;;;;;;;;;;;;;;;;;5062360;28;19962;-79
2021/06/24 15:24:40;;;;;;;;;;;;;;;;;;5061833;28;19912;-79
2021/06/24 15:27:05;;;;;;;;;;;;;;;;;;5060428;28;19927;-79
2021/06/24 15:29:32;;;;;;;;;;;;;;;;;;5060493;28;20132;-79
2021/06/24 15:31:58;;;;;;;;;;;;;;;;;;5061115;28;19960;-80
2021/06/24 15:34:23;;;;;;;;;;;;;;;;;;5059510;28;19917;-79
2021/06/24 15:36:48;;;;;;;;;;;;;;;;;;5038230;28;19938;-79
2021/06/24 15:39:13;;;;;;;;;;;;;;;;;;5079153;28;19920;-79
2021/06/24 15:41:38;;;;;;;;;;;;;;;;;;5061224;28;19928;-79
2021/06/24 15:44:04;;;;;;;;;;;;;;;;;;5060167;28;19974;-79
2021/06/24 15:46:29;;;;;;;;;;;;;;;;;;5058838;28;19920;-79
2021/06/24 15:48:54;;;;;;;;;;;;;;;;;;5049552;28;19975;-79
2021/06/24 15:51:20;;;;;;;;;;;;;;;;;;5076844;28;19917;-79
2021/06/24 15:53:45;;;;;;;;;;;;;;;;;;5075435;28;19951;-79
2021/06/24 15:56:11;;;;;;;;;;;;;;;;;;5022888;28;19917;-79
2021/06/24 15:58:36;;;;;;;;;;;;;;;;;;5048627;28;19920;-79
2021/06/24 16:01:03;;;;;;;;;;;;;;;;;;5039487;28;19924;-79
2021/06/24 16:03:29;;;;;;;;;;;;;;;;;;5050191;28;19956;-79
2021/06/24 16:05:54;;;;;;;;;;;;;;;;;;5059013;28;20020;-79
2021/06/24 16:08:20;;;;;;;;;;;;;;;;;;5051268;28;19978;-79
2021/06/24 16:10:46;;;;;;;;;;;;;;;;;;5036412;28;19920;-78
2021/06/24 16:13:11;;;;;;;;;;;;;;;;;;5068024;28;19923;-77
2021/06/24 16:15:37;;;;;;;;;;;;;;;;;;5036300;28;19912;-77
2021/06/24 16:18:02;;;;;;;;;;;;;;;;;;5055953;28;19928;-77
2021/06/24 16:20:27;;;;;;;;;;;;;;;;;;5051428;28;20007;-77
2021/06/24 16:22:52;;;;;;;;;;;;;;;;;;5065729;28;20404;-77
2021/06/24 16:25:18;;;;;;;;;;;;;;;;;;5072220;28;19916;-78
2021/06/24 16:27:47;;;;;;;;;;;;;;;;;;5041996;28;19999;-78
2021/06/24 16:30:15;;;;;;;;;;;;;;;;;;5057676;28;20605;-79
2021/06/24 16:32:41;;;;;;;;;;;;;;;;;;5073694;28;20291;-79
2021/06/24 16:35:06;;;;;;;;;;;;;;;;;;5056349;28;19939;-79
2021/06/24 16:37:32;;;;;;;;;;;;;;;;;;5039848;28;19916;-79
2021/06/24 16:39:57;;;;;;;;;;;;;;;;;;5056821;28;19923;-79
2021/06/24 16:42:22;;;;;;;;;;;;;;;;;;5075707;28;20252;-79
2021/06/24 16:44:47;;;;;;;;;;;;;;;;;;5056944;28;20074;-80
2021/06/24 16:47:13;;;;;;;;;;;;;;;;;;5071058;28;19945;-80
2021/06/24 16:49:39;;;;;;;;;;;;;;;;;;5074704;28;19916;-80
2021/06/24 16:52:05;;;;;;;;;;;;;;;;;;5056332;28;20050;-80